SARC/CNQ METAR and TAF weather

Enter ICAO airport designator
Station Type Date Time Source
SARC METAR 2018/12/10 13:00 UTC NOAA

SARC 101300Z 02006KT CAVOK 30/19 Q1015


Station Type Date Time Source
SARC Decoded METAR 2018/12/10 13:00 UTC NOAA

Corrientes Aero., Argentina (SARC) 27-27S 058-46W 62M
Dec 10, 2018 - 08:00 AM EST / 2018.12.10 1300 UTC
Wind: from the NNE (020 degrees) at 7 MPH (6 KT):0
Visibility: greater than 7 mile(s):0
Temperature: 86 F (30 C)
Dew Point: 66 F (19 C)
Relative Humidity: 51%
Pressure (altimeter): 29.97 in. Hg (1015 hPa)
ob: SARC 101300Z 02006KT CAVOK 30/19 Q1015
cycle: 13

Station Type Date Time Source
SARC TAF 2017/11/25 07:54 UTC NOAA

TAF TAF
AMD SARC 250650Z 2507/2606 18025G40KT 1500 +TSRA SCT010 BKN030 FEW050CB BKN050 TX25/2518Z TN20/2509Z
BECMG 2510/2512 18015KT 5000 TSRA BKN020 FEW050CB OVC060


Example: see airport list